createdAt,value
2023-03-06T00:04:44.084Z,0.5
2023-03-06T00:09:44.080Z,0.25
2023-03-06T00:14:44.080Z,0.25
2023-03-06T00:19:44.077Z,0.12
2023-03-06T00:29:44.097Z,0.18
2023-03-06T00:34:44.068Z,0.25
2023-03-06T00:39:44.068Z,0.12
2023-03-06T00:49:44.072Z,0.31
2023-03-06T00:54:44.077Z,-0.06
2023-03-06T00:59:44.058Z,0.18
2023-03-06T01:04:44.088Z,0.06
2023-03-06T01:14:44.063Z,0.37
2023-03-06T01:44:44.059Z,-0.12
2023-03-06T01:49:44.108Z,-0.12
2023-03-06T01:54:44.062Z,-0.06
2023-03-06T01:59:44.056Z,0.25
2023-03-06T02:04:44.045Z,0
2023-03-06T02:09:44.040Z,0.12
2023-03-06T02:14:44.065Z,0.18
2023-03-06T02:19:44.053Z,0.12
2023-03-06T02:24:54.047Z,0.18
2023-03-06T02:29:44.058Z,0.06
2023-03-06T02:34:44.136Z,0.18
2023-03-06T02:39:46.005Z,0
2023-03-06T02:44:44.105Z,-0.18
2023-03-06T02:49:44.043Z,-0.06
2023-03-06T02:54:44.039Z,-0.25
2023-03-06T02:59:44.030Z,0.06
2023-03-06T03:04:44.103Z,-0.06
2023-03-06T03:09:44.030Z,0.12
2023-03-06T03:14:44.077Z,-0.43
2023-03-06T03:19:44.064Z,-0.25
2023-03-06T03:24:44.051Z,-0.56
2023-03-06T03:29:44.038Z,-0.81
2023-03-06T03:34:44.058Z,-1.06
2023-03-06T03:39:44.086Z,-1
2023-03-06T03:44:44.070Z,-1.18
2023-03-06T03:49:44.025Z,-1.31
2023-03-06T03:54:44.016Z,-0.87
2023-03-06T03:59:44.000Z,-0.87
2023-03-06T04:04:44.078Z,-0.75
2023-03-06T04:09:44.038Z,-1.06
2023-03-06T04:14:44.025Z,-1.06
2023-03-06T04:19:54.074Z,-1.06
2023-03-06T04:24:49.025Z,-1
2023-03-06T04:29:54.004Z,-0.93
2023-03-06T04:34:44.042Z,-1
2023-03-06T04:39:44.184Z,-0.87
2023-03-06T04:44:44.001Z,-0.87
2023-03-06T04:54:43.982Z,-0.75
2023-03-06T04:59:44.011Z,-0.62
2023-03-06T05:04:44.028Z,-0.62
2023-03-06T05:09:54.064Z,-0.75
2023-03-06T05:14:44.618Z,-0.56
2023-03-06T05:19:44.192Z,-0.68
2023-03-06T05:24:43.973Z,-0.56
2023-03-06T05:29:44.024Z,-0.68
2023-03-06T05:34:45.274Z,-0.62
2023-03-06T05:39:44.111Z,-0.37
2023-03-06T05:44:44.067Z,-0.37
2023-03-06T05:49:43.970Z,-0.43
2023-03-06T05:54:43.959Z,-0.5
2023-03-06T05:59:46.256Z,-0.81
2023-03-06T06:04:43.999Z,-0.62
2023-03-06T06:09:43.983Z,-0.68
2023-03-06T06:14:53.978Z,-0.68
2023-03-06T06:19:43.985Z,-0.62
2023-03-06T06:24:44.000Z,-0.5
2023-03-06T06:29:43.967Z,-0.18
2023-03-06T06:39:44.061Z,0.37
2023-03-06T06:44:44.024Z,0.37
2023-03-06T06:49:44.008Z,0.68
2023-03-06T06:54:43.976Z,0.93
2023-03-06T06:59:44.007Z,1.37
2023-03-06T07:04:56.455Z,1.18
2023-03-06T07:09:44.108Z,1.56
2023-03-06T07:14:43.938Z,1.5
2023-03-06T07:19:43.928Z,1.56
2023-03-06T07:24:43.940Z,1.75
2023-03-06T07:29:43.995Z,1.87
2023-03-06T07:34:43.991Z,2
2023-03-06T07:39:43.964Z,2.18
2023-03-06T07:44:43.969Z,2.37
2023-03-06T07:49:54.013Z,2.5
2023-03-06T07:54:43.915Z,2.75
2023-03-06T07:59:43.924Z,3.06
2023-03-06T08:04:43.947Z,2.93
2023-03-06T08:09:44.049Z,3.12
2023-03-06T08:14:43.937Z,3.37
2023-03-06T08:19:43.905Z,3.5
2023-03-06T08:29:53.919Z,3.68
2023-03-06T08:39:43.916Z,4.12
2023-03-06T08:49:43.863Z,3.56
2023-03-06T09:09:43.893Z,3.68
2023-03-06T09:14:43.846Z,3.68
2023-03-06T09:29:43.877Z,3.93
2023-03-06T09:34:43.859Z,4.12
2023-03-06T09:39:44.935Z,4.25
2023-03-06T09:44:43.894Z,4.68
2023-03-06T09:49:43.880Z,4.62
2023-03-06T09:54:43.926Z,4.25
2023-03-06T09:59:43.856Z,4.75
2023-03-06T10:04:43.867Z,4.68
2023-03-06T10:09:43.818Z,4.18
2023-03-06T10:14:53.819Z,4.43
2023-03-06T10:19:43.877Z,5.06
2023-03-06T10:24:43.828Z,4.93
2023-03-06T10:29:53.061Z,5.37
2023-03-06T10:34:43.879Z,5.12
2023-03-06T10:39:43.807Z,5.43
2023-03-06T10:44:43.851Z,5.68
2023-03-06T10:49:43.794Z,5
2023-03-06T10:54:43.796Z,5.18
2023-03-06T10:59:43.805Z,5.37
2023-03-06T11:04:43.874Z,4.68
2023-03-06T11:09:43.842Z,4.87
2023-03-06T11:14:43.815Z,5.06
2023-03-06T11:24:43.818Z,5.12
2023-03-06T11:29:43.801Z,5.18
2023-03-06T11:34:43.826Z,5.25
2023-03-06T11:39:43.789Z,5
2023-03-06T11:44:43.794Z,5.06
2023-03-06T11:49:43.786Z,4.93
2023-03-06T11:54:43.735Z,4.87
2023-03-06T11:59:43.765Z,5.25
2023-03-06T12:04:43.812Z,5.43
2023-03-06T12:09:43.751Z,5.12
2023-03-06T12:14:53.791Z,4.75
2023-03-06T12:19:43.801Z,4.5
2023-03-06T12:24:43.712Z,4
2023-03-06T12:39:43.786Z,3.93
2023-03-06T12:44:43.709Z,3.87
2023-03-06T12:49:43.705Z,3.81
2023-03-06T12:54:43.738Z,3.56
2023-03-06T12:59:43.820Z,3.43
2023-03-06T13:04:53.711Z,3.37
2023-03-06T13:09:43.767Z,3.31
2023-03-06T13:14:52.533Z,3.62
2023-03-06T13:19:43.717Z,3.68
2023-03-06T13:24:43.686Z,4
2023-03-06T13:29:53.715Z,4.68
2023-03-06T13:34:43.761Z,4.31
2023-03-06T13:39:43.696Z,4.06
2023-03-06T13:44:43.696Z,4.12
2023-03-06T13:49:43.931Z,3.81
2023-03-06T13:54:43.648Z,3.81
2023-03-06T13:59:43.679Z,3.62
2023-03-06T14:04:43.676Z,3.56
2023-03-06T14:09:53.719Z,3.68
2023-03-06T14:14:43.630Z,3.68
2023-03-06T14:19:43.616Z,3.87
2023-03-06T14:24:43.648Z,3.75
2023-03-06T14:29:43.656Z,3.68
2023-03-06T14:34:43.691Z,3.37
2023-03-06T14:39:43.653Z,3.5
2023-03-06T14:44:43.732Z,3.56
2023-03-06T14:49:43.623Z,3.37
2023-03-06T14:54:43.606Z,3.31
2023-03-06T14:59:43.626Z,3.31
2023-03-06T15:04:43.640Z,3.5
2023-03-06T15:09:43.649Z,3.31
2023-03-06T15:14:43.584Z,3.25
2023-03-06T15:19:43.600Z,3.25
2023-03-06T15:24:53.652Z,3.25
2023-03-06T15:29:43.649Z,3.25
2023-03-06T15:39:43.724Z,3.43
2023-03-06T15:49:43.589Z,3.31
2023-03-06T15:59:43.619Z,3.25
2023-03-06T16:04:43.568Z,3.25
2023-03-06T16:09:43.638Z,3.06
2023-03-06T16:19:46.962Z,2.93
2023-03-06T16:29:43.649Z,2.81
2023-03-06T16:39:43.535Z,2.75
2023-03-06T16:44:53.607Z,2.62
2023-03-06T16:49:43.622Z,2.56
2023-03-06T16:54:44.640Z,2.5
2023-03-06T16:59:43.536Z,2.43
2023-03-06T17:09:43.998Z,2.31
2023-03-06T17:14:43.540Z,2.31
2023-03-06T17:19:43.517Z,2.18
2023-03-06T17:24:43.597Z,2.12
2023-03-06T17:29:43.516Z,2.12
2023-03-06T17:34:43.518Z,2.18
2023-03-06T17:39:43.552Z,2.12
2023-03-06T17:44:43.624Z,2.06
2023-03-06T17:49:43.495Z,2
2023-03-06T17:54:43.517Z,1.93
2023-03-06T17:59:43.523Z,1.87
2023-03-06T18:04:53.635Z,1.81
2023-03-06T18:09:43.528Z,1.87
2023-03-06T18:14:43.516Z,1.56
2023-03-06T18:19:43.573Z,1.81
2023-03-06T18:24:53.684Z,1.68
2023-03-06T18:29:53.448Z,1.56
2023-03-06T18:34:43.460Z,1.75
2023-03-06T18:39:43.805Z,1.62
2023-03-06T18:44:43.517Z,1.37
2023-03-06T18:49:44.305Z,1.31
2023-03-06T18:54:43.519Z,1.43
2023-03-06T18:59:43.531Z,1.5
2023-03-06T19:04:43.500Z,1.56
2023-03-06T19:09:43.453Z,1.37
2023-03-06T19:14:53.475Z,1.31
2023-03-06T19:19:43.505Z,1.12
2023-03-06T19:24:43.475Z,1.25
2023-03-06T19:29:43.573Z,1.12
2023-03-06T19:34:43.483Z,1
2023-03-06T19:39:43.470Z,0.93
2023-03-06T19:44:43.505Z,1
2023-03-06T19:49:43.466Z,0.93
2023-03-06T19:54:43.445Z,0.93
2023-03-06T19:59:43.709Z,0.93
2023-03-06T20:04:44.029Z,1
2023-03-06T20:09:43.536Z,1.25
2023-03-06T20:14:43.494Z,1.18
2023-03-06T20:19:43.544Z,1
2023-03-06T20:24:43.527Z,1.31
2023-03-06T20:29:43.434Z,1.06
2023-03-06T20:34:43.652Z,0.87
2023-03-06T20:39:43.439Z,1.06
2023-03-06T20:44:53.434Z,0.81
2023-03-06T20:49:43.454Z,0.81
2023-03-06T20:54:43.438Z,0.87
2023-03-06T20:59:43.422Z,0.87
2023-03-06T21:04:43.549Z,1.06
2023-03-06T21:09:43.428Z,1.12
2023-03-06T21:14:43.451Z,0.87
2023-03-06T21:19:43.465Z,1.06
2023-03-06T21:24:43.479Z,1.18
2023-03-06T21:29:43.868Z,1.06
2023-03-06T21:34:43.705Z,1.18
2023-03-06T21:39:43.464Z,1.12
2023-03-06T21:44:44.443Z,1.06
2023-03-06T21:49:43.611Z,1.12
2023-03-06T21:54:43.979Z,1.06
2023-03-06T21:59:43.379Z,1.12
2023-03-06T22:04:43.492Z,1.12
2023-03-06T22:09:43.544Z,1.25
2023-03-06T22:14:43.438Z,1.18
2023-03-06T22:19:43.744Z,1.18
2023-03-06T22:24:43.406Z,1.31
2023-03-06T22:39:43.420Z,1.31
2023-03-06T22:44:53.420Z,1.25
2023-03-06T22:49:43.423Z,1.25
2023-03-06T22:54:43.346Z,1.37
2023-03-06T23:14:43.433Z,1.31
2023-03-06T23:19:43.356Z,1.43
2023-03-06T23:29:43.351Z,1.43
2023-03-06T23:34:43.324Z,1.43
2023-03-06T23:49:43.322Z,1.25
2023-03-06T23:54:43.318Z,1.12
2023-03-06T23:59:43.376Z,1.25
